Time;durP1;ratioP1;P1;durP2;ratioP2;P2;SDS_P1;SDS_P2;PMS_P1;PMS_P2;Temp;Humidity;BMP_temperature;BMP_pressure;BME280_temperature;BME280_humidity;BME280_pressure;Samples;Min_cycle;Max_cycle;Signal;HPM_P1;HPM_P2
2022/07/29 00:01:32;;;;;;;;;;;16.00;99.90;;;;;;5122758;27;20002;-78
2022/07/29 00:03:58;;;;;;;;;;;16.10;99.90;;;;;;5143045;27;20305;-79
2022/07/29 00:06:24;;;;;;;;;;;16.00;99.90;;;;;;5125609;27;19945;-79
2022/07/29 00:08:49;;;;;;;;;;;16.00;99.90;;;;;;5141102;27;19924;-79
2022/07/29 00:11:15;;;;;;;;;;;16.10;99.90;;;;;;5118689;27;19928;-81
2022/07/29 00:13:40;;;;;;;;;;;16.10;99.90;;;;;;5142561;27;20386;-84
2022/07/29 00:16:06;;;;;;;;;;;16.10;99.90;;;;;;5153096;27;19927;-77
2022/07/29 00:18:31;;;;;;;;;;;16.10;99.90;;;;;;5126374;27;19967;-80
2022/07/29 00:20:57;;;;;;;;;;;16.10;99.90;;;;;;5138227;27;19923;-81
2022/07/29 00:23:23;;;;;;;;;;;16.00;99.90;;;;;;5150911;27;19927;-80
2022/07/29 00:25:48;;;;;;;;;;;16.10;99.90;;;;;;5138702;27;20009;-81
2022/07/29 00:28:14;;;;;;;;;;;16.10;99.90;;;;;;5143773;27;19934;-80
2022/07/29 00:30:41;;;;;;;;;;;16.00;99.90;;;;;;5108962;27;20285;-80
2022/07/29 00:33:07;;;;;;;;;;;16.00;99.90;;;;;;5136365;27;19923;-80
2022/07/29 00:35:45;;;;;;;;;;;16.10;99.90;;;;;;5139564;27;20385;-80
2022/07/29 00:38:11;;;;;;;;;;;16.10;99.90;;;;;;5143618;27;20017;-80
2022/07/29 00:40:37;;;;;;;;;;;16.00;99.90;;;;;;5124765;27;20405;-81
2022/07/29 00:43:02;;;;;;;;;;;16.00;99.90;;;;;;5121571;27;19923;-80
2022/07/29 00:45:29;;;;;;;;;;;16.10;99.90;;;;;;5142445;27;19927;-80
2022/07/29 00:47:55;;;;;;;;;;;16.10;99.90;;;;;;5128681;27;19923;-80
2022/07/29 00:50:20;;;;;;;;;;;16.10;99.90;;;;;;5116722;27;19935;-80
2022/07/29 00:52:46;;;;;;;;;;;16.10;99.90;;;;;;5148178;27;19923;-80
2022/07/29 00:55:14;;;;;;;;;;;16.10;99.90;;;;;;5146453;27;19930;-80
2022/07/29 00:57:40;;;;;;;;;;;16.10;99.90;;;;;;5148065;27;20006;-80
2022/07/29 01:00:07;;;;;;;;;;;16.10;99.90;;;;;;5147710;27;19923;-80
2022/07/29 01:02:33;;;;;;;;;;;16.10;99.90;;;;;;5141505;27;19974;-80
2022/07/29 01:04:59;;;;;;;;;;;16.10;99.90;;;;;;5144989;27;19926;-81
2022/07/29 01:07:25;;;;;;;;;;;16.10;99.90;;;;;;5158703;27;19948;-80
2022/07/29 01:09:51;;;;;;;;;;;16.10;99.90;;;;;;5125188;27;20414;-80
2022/07/29 01:12:18;;;;;;;;;;;16.10;99.90;;;;;;5137658;27;19923;-80
2022/07/29 01:14:45;;;;;;;;;;;16.10;99.90;;;;;;5138056;27;20339;-80
2022/07/29 01:17:13;;;;;;;;;;;16.10;99.90;;;;;;5151909;27;20317;-80
2022/07/29 01:19:49;;;;;;;;;;;16.10;99.90;;;;;;5131176;27;20365;-80
2022/07/29 01:22:38;;;;;;;;;;;16.10;99.90;;;;;;5157050;27;19923;-80
2022/07/29 01:25:19;;;;;;;;;;;16.10;99.90;;;;;;5089789;27;19930;-80
2022/07/29 01:27:51;;;;;;;;;;;16.10;99.90;;;;;;5137727;27;19968;-80
2022/07/29 01:30:16;;;;;;;;;;;16.10;99.90;;;;;;5133185;27;19973;-80
2022/07/29 01:32:46;;;;;;;;;;;16.10;99.90;;;;;;5135140;27;19924;-81
2022/07/29 01:35:14;;;;;;;;;;;16.10;99.90;;;;;;5120432;27;19923;-80
2022/07/29 01:37:40;;;;;;;;;;;16.20;99.90;;;;;;5141976;27;19923;-81
2022/07/29 01:40:10;;;;;;;;;;;16.20;99.90;;;;;;5143186;27;19975;-81
2022/07/29 01:42:38;;;;;;;;;;;16.20;99.90;;;;;;5127071;27;19923;-80
2022/07/29 01:45:22;;;;;;;;;;;16.20;99.90;;;;;;5144033;27;20286;-80
2022/07/29 01:47:54;;;;;;;;;;;16.20;99.90;;;;;;5121208;27;20363;-80
2022/07/29 01:50:23;;;;;;;;;;;16.20;99.90;;;;;;5125437;27;20385;-80
2022/07/29 01:53:08;;;;;;;;;;;16.20;99.90;;;;;;5143792;27;19974;-81
2022/07/29 01:55:38;;;;;;;;;;;16.20;99.90;;;;;;5144760;27;19965;-80
2022/07/29 01:58:05;;;;;;;;;;;16.20;99.90;;;;;;5143518;27;20368;-80
2022/07/29 02:00:31;;;;;;;;;;;16.20;99.90;;;;;;5133990;27;19923;-81
2022/07/29 02:02:58;;;;;;;;;;;16.20;99.90;;;;;;5125744;27;19923;-80
2022/07/29 02:05:26;;;;;;;;;;;16.20;99.90;;;;;;5140118;27;19933;-80
2022/07/29 02:07:52;;;;;;;;;;;16.20;99.90;;;;;;5139126;27;19971;-81
2022/07/29 02:10:20;;;;;;;;;;;16.20;99.90;;;;;;5130801;27;19977;-80
2022/07/29 02:12:46;;;;;;;;;;;16.20;99.90;;;;;;5136758;27;19971;-86
2022/07/29 02:15:11;;;;;;;;;;;16.20;99.90;;;;;;5119355;27;19923;-80
2022/07/29 02:17:47;;;;;;;;;;;16.20;99.90;;;;;;5150385;27;19922;-80
2022/07/29 02:20:13;;;;;;;;;;;16.20;99.90;;;;;;5146699;27;19923;-80
2022/07/29 02:22:39;;;;;;;;;;;16.20;99.90;;;;;;5137013;27;19930;-81
2022/07/29 02:25:06;;;;;;;;;;;16.10;99.90;;;;;;5140040;27;19929;-80
2022/07/29 02:27:33;;;;;;;;;;;16.10;99.90;;;;;;5154764;27;19923;-80
2022/07/29 02:30:00;;;;;;;;;;;16.10;99.90;;;;;;5135402;27;19923;-81
2022/07/29 02:32:27;;;;;;;;;;;16.20;99.90;;;;;;5119747;27;20015;-80
2022/07/29 02:34:53;;;;;;;;;;;16.10;99.90;;;;;;5151115;27;20336;-80
2022/07/29 02:37:19;;;;;;;;;;;16.20;99.90;;;;;;5125247;27;19923;-80
2022/07/29 02:39:47;;;;;;;;;;;16.20;99.90;;;;;;5132591;27;20392;-80
2022/07/29 02:42:15;;;;;;;;;;;16.20;99.90;;;;;;5133817;27;19923;-80
2022/07/29 02:44:41;;;;;;;;;;;16.10;99.90;;;;;;5146744;27;19923;-80
2022/07/29 02:47:25;;;;;;;;;;;16.10;99.90;;;;;;5137861;27;19923;-80
2022/07/29 02:50:01;;;;;;;;;;;16.10;99.90;;;;;;5139751;27;20009;-81
2022/07/29 02:52:43;;;;;;;;;;;16.10;99.90;;;;;;5139203;27;19985;-80
2022/07/29 02:55:22;;;;;;;;;;;16.10;99.90;;;;;;5128887;27;20286;-80
2022/07/29 02:57:55;;;;;;;;;;;16.10;99.90;;;;;;5136612;27;20382;-80
2022/07/29 03:00:21;;;;;;;;;;;16.10;99.90;;;;;;5146752;27;20290;-80
2022/07/29 03:02:50;;;;;;;;;;;16.10;99.90;;;;;;5150803;27;19933;-80
2022/07/29 03:05:18;;;;;;;;;;;16.10;99.90;;;;;;5143814;27;19922;-80
2022/07/29 03:07:45;;;;;;;;;;;16.10;99.90;;;;;;5125358;27;19927;-82
2022/07/29 03:10:11;;;;;;;;;;;16.10;99.90;;;;;;5141888;27;20316;-80
2022/07/29 03:12:37;;;;;;;;;;;16.10;99.90;;;;;;5135728;27;19930;-81
2022/07/29 03:15:03;;;;;;;;;;;16.10;99.90;;;;;;5141787;27;19968;-80
2022/07/29 03:17:29;;;;;;;;;;;16.10;99.90;;;;;;5156936;27;20362;-80
2022/07/29 03:19:55;;;;;;;;;;;16.10;99.90;;;;;;5141052;27;19923;-81
2022/07/29 03:22:20;;;;;;;;;;;16.10;99.90;;;;;;5126407;27;20322;-80
2022/07/29 03:24:46;;;;;;;;;;;16.10;99.90;;;;;;5156925;27;20283;-80
2022/07/29 03:27:12;;;;;;;;;;;16.10;99.90;;;;;;5139458;27;19923;-80
2022/07/29 03:29:37;;;;;;;;;;;16.10;99.90;;;;;;5129420;27;19923;-80
2022/07/29 03:32:04;;;;;;;;;;;16.10;99.90;;;;;;5142331;27;19994;-80
2022/07/29 03:34:29;;;;;;;;;;;16.10;99.90;;;;;;5137756;27;19923;-80
2022/07/29 03:36:55;;;;;;;;;;;16.20;99.90;;;;;;5130136;27;20363;-80
2022/07/29 03:39:22;;;;;;;;;;;16.20;99.90;;;;;;5137341;27;19923;-80
2022/07/29 03:41:51;;;;;;;;;;;16.20;99.90;;;;;;5130579;27;20405;-80
2022/07/29 03:44:17;;;;;;;;;;;16.20;99.90;;;;;;5127401;27;20324;-80
2022/07/29 03:46:44;;;;;;;;;;;16.20;99.90;;;;;;5127995;27;19923;-80
2022/07/29 03:49:11;;;;;;;;;;;16.20;99.90;;;;;;5147006;27;20332;-80
2022/07/29 03:51:36;;;;;;;;;;;16.20;99.90;;;;;;5141204;27;20017;-80
2022/07/29 03:54:02;;;;;;;;;;;16.10;99.90;;;;;;5153871;27;20031;-80
2022/07/29 03:56:28;;;;;;;;;;;16.10;99.90;;;;;;5122452;27;19923;-80
2022/07/29 03:58:55;;;;;;;;;;;16.20;99.90;;;;;;5153646;27;20425;-80
2022/07/29 04:01:22;;;;;;;;;;;16.10;99.90;;;;;;5133262;27;19919;-80
2022/07/29 04:03:48;;;;;;;;;;;16.20;99.90;;;;;;5157476;27;19947;-80
2022/07/29 04:06:14;;;;;;;;;;;16.10;99.90;;;;;;5151310;27;19930;-80
2022/07/29 04:08:39;;;;;;;;;;;16.10;99.90;;;;;;5115861;27;19931;-79
2022/07/29 04:11:05;;;;;;;;;;;16.10;99.90;;;;;;5138948;27;20293;-80
2022/07/29 04:13:31;;;;;;;;;;;16.10;99.90;;;;;;5144793;27;19989;-80
2022/07/29 04:15:56;;;;;;;;;;;16.10;99.90;;;;;;5130195;27;19923;-81
2022/07/29 04:18:22;;;;;;;;;;;16.10;99.90;;;;;;5147661;27;19927;-80
2022/07/29 04:20:48;;;;;;;;;;;16.10;99.90;;;;;;5152509;27;19942;-79
2022/07/29 04:23:14;;;;;;;;;;;16.10;99.90;;;;;;5152341;27;19927;-80
2022/07/29 04:25:40;;;;;;;;;;;16.10;99.90;;;;;;5125879;27;19930;-80
2022/07/29 04:28:06;;;;;;;;;;;16.10;99.90;;;;;;5134857;27;20064;-80
2022/07/29 04:30:33;;;;;;;;;;;16.10;99.90;;;;;;5135046;27;19971;-80
2022/07/29 04:33:00;;;;;;;;;;;16.10;99.90;;;;;;5148319;27;19974;-80
2022/07/29 04:35:26;;;;;;;;;;;16.20;99.90;;;;;;5107315;27;19934;-81
2022/07/29 04:37:52;;;;;;;;;;;16.20;99.90;;;;;;5134463;27;19967;-80
2022/07/29 04:40:17;;;;;;;;;;;16.20;99.90;;;;;;5150386;27;19930;-80
2022/07/29 04:42:43;;;;;;;;;;;16.20;99.90;;;;;;5140077;27;19926;-80
2022/07/29 04:45:08;;;;;;;;;;;16.20;99.90;;;;;;5127666;27;19926;-80
2022/07/29 04:47:34;;;;;;;;;;;16.20;99.90;;;;;;5154548;27;19927;-80
2022/07/29 04:50:00;;;;;;;;;;;16.30;99.90;;;;;;5148631;27;20414;-80
2022/07/29 04:52:25;;;;;;;;;;;16.30;99.90;;;;;;5141872;27;19926;-80
2022/07/29 04:54:51;;;;;;;;;;;16.30;99.90;;;;;;5122419;27;19927;-80
2022/07/29 04:57:16;;;;;;;;;;;16.40;99.90;;;;;;5137724;27;19969;-80
2022/07/29 04:59:43;;;;;;;;;;;16.40;99.90;;;;;;5133777;27;19923;-80
2022/07/29 05:02:08;;;;;;;;;;;16.40;99.90;;;;;;5138179;27;19930;-81
2022/07/29 05:04:34;;;;;;;;;;;16.40;99.90;;;;;;5134844;27;19926;-82
2022/07/29 05:06:59;;;;;;;;;;;16.40;99.90;;;;;;5117714;27;19923;-80
2022/07/29 05:09:25;;;;;;;;;;;16.40;99.90;;;;;;5137948;27;19923;-80
2022/07/29 05:11:51;;;;;;;;;;;16.40;99.90;;;;;;5137603;27;19927;-80
2022/07/29 05:14:16;;;;;;;;;;;16.50;99.90;;;;;;5108342;27;19923;-80
2022/07/29 05:16:43;;;;;;;;;;;16.50;99.90;;;;;;5115232;27;19965;-81
2022/07/29 05:19:08;;;;;;;;;;;16.50;99.90;;;;;;5123525;27;19923;-84
2022/07/29 05:21:34;;;;;;;;;;;16.50;99.90;;;;;;5138717;27;19934;-80
2022/07/29 05:24:00;;;;;;;;;;;16.50;99.90;;;;;;5111334;27;20419;-81
2022/07/29 05:26:25;;;;;;;;;;;16.50;99.90;;;;;;5130697;27;19970;-80
2022/07/29 05:28:51;;;;;;;;;;;16.60;99.90;;;;;;5144306;27;19923;-87
2022/07/29 05:31:16;;;;;;;;;;;16.60;99.90;;;;;;5120341;27;19949;-80
2022/07/29 05:33:42;;;;;;;;;;;16.60;99.90;;;;;;5126615;27;19971;-80
2022/07/29 05:36:08;;;;;;;;;;;16.70;99.90;;;;;;5124675;27;20273;-80
2022/07/29 05:38:34;;;;;;;;;;;16.70;99.90;;;;;;5148961;27;19933;-80
2022/07/29 05:40:59;;;;;;;;;;;16.70;99.90;;;;;;5126732;27;20006;-80
2022/07/29 05:43:26;;;;;;;;;;;16.80;99.90;;;;;;5131615;27;19962;-81
2022/07/29 05:45:52;;;;;;;;;;;16.80;99.90;;;;;;5127728;27;19930;-81
2022/07/29 05:48:17;;;;;;;;;;;16.90;99.90;;;;;;5127986;27;20290;-81
2022/07/29 05:50:43;;;;;;;;;;;16.90;99.90;;;;;;5149030;27;19930;-80
2022/07/29 05:53:08;;;;;;;;;;;16.90;99.90;;;;;;5147323;27;19923;-81
2022/07/29 05:55:34;;;;;;;;;;;17.00;99.90;;;;;;5122281;27;20161;-80
2022/07/29 05:57:59;;;;;;;;;;;17.00;99.90;;;;;;5119966;27;19951;-82
2022/07/29 06:00:25;;;;;;;;;;;17.10;99.90;;;;;;5151102;27;19923;-80
2022/07/29 06:02:51;;;;;;;;;;;17.10;99.90;;;;;;5144280;27;20327;-81
2022/07/29 06:05:17;;;;;;;;;;;17.10;99.90;;;;;;5110834;27;19927;-80
2022/07/29 06:07:42;;;;;;;;;;;17.20;99.90;;;;;;5142110;27;19930;-80
2022/07/29 06:10:08;;;;;;;;;;;17.20;99.90;;;;;;5157640;27;19922;-80
2022/07/29 06:12:34;;;;;;;;;;;17.20;99.90;;;;;;5130012;27;20022;-80
2022/07/29 06:14:59;;;;;;;;;;;17.30;99.90;;;;;;5130183;27;19930;-79
2022/07/29 06:17:25;;;;;;;;;;;17.30;99.90;;;;;;5126659;27;20017;-78
2022/07/29 06:19:51;;;;;;;;;;;17.40;99.90;;;;;;5150587;27;19923;-79
2022/07/29 06:22:17;;;;;;;;;;;17.40;99.90;;;;;;5127071;27;19927;-82
2022/07/29 06:24:43;;;;;;;;;;;17.50;99.90;;;;;;5120280;27;20359;-81
2022/07/29 06:27:12;;;;;;;;;;;17.50;99.90;;;;;;5118854;27;19945;-79
2022/07/29 06:29:38;;;;;;;;;;;17.60;99.90;;;;;;5136499;27;19924;-79
2022/07/29 06:32:03;;;;;;;;;;;17.60;99.90;;;;;;5136500;27;19975;-75
2022/07/29 06:34:29;;;;;;;;;;;17.60;99.90;;;;;;5116855;27;20298;-78
2022/07/29 06:36:55;;;;;;;;;;;17.70;99.90;;;;;;5122486;27;19937;-76
2022/07/29 06:39:20;;;;;;;;;;;17.80;99.90;;;;;;5137506;27;20353;-77
2022/07/29 06:41:48;;;;;;;;;;;17.90;99.90;;;;;;5132010;27;20035;-75
2022/07/29 06:44:14;;;;;;;;;;;17.90;99.90;;;;;;5137015;27;19926;-74
2022/07/29 06:46:39;;;;;;;;;;;18.00;99.90;;;;;;5152748;27;19959;-75
2022/07/29 06:49:05;;;;;;;;;;;18.10;99.90;;;;;;5119737;27;19946;-76
2022/07/29 06:51:31;;;;;;;;;;;18.10;99.90;;;;;;5146055;27;19927;-75
2022/07/29 06:53:57;;;;;;;;;;;18.10;99.90;;;;;;5102522;27;19923;-77
2022/07/29 06:56:22;;;;;;;;;;;18.20;99.90;;;;;;5136977;27;19923;-75
2022/07/29 06:58:48;;;;;;;;;;;18.20;99.90;;;;;;5136151;27;19933;-80
2022/07/29 07:01:14;;;;;;;;;;;18.30;99.90;;;;;;5103489;27;19927;-91
2022/07/29 07:03:39;;;;;;;;;;;18.40;99.90;;;;;;5137729;27;19923;-85
2022/07/29 07:06:05;;;;;;;;;;;18.50;99.90;;;;;;5112735;27;20472;-90
2022/07/29 07:08:30;;;;;;;;;;;18.60;99.90;;;;;;5138168;27;19945;-83
2022/07/29 07:10:56;;;;;;;;;;;18.80;99.90;;;;;;5132410;27;20378;-77
2022/07/29 07:13:22;;;;;;;;;;;18.90;99.90;;;;;;5154241;27;19990;-79
2022/07/29 07:15:48;;;;;;;;;;;19.00;99.90;;;;;;5144763;27;20021;-79
2022/07/29 07:18:14;;;;;;;;;;;19.10;99.90;;;;;;5155018;27;20366;-76
2022/07/29 07:20:40;;;;;;;;;;;19.20;99.90;;;;;;5112526;27;20013;-77
2022/07/29 07:23:05;;;;;;;;;;;19.30;99.90;;;;;;5140183;27;20029;-77
2022/07/29 07:25:31;;;;;;;;;;;19.40;99.90;;;;;;5116677;27;19942;-87
2022/07/29 07:27:56;;;;;;;;;;;19.50;99.90;;;;;;5122443;27;20420;-78
2022/07/29 07:30:22;;;;;;;;;;;19.60;99.90;;;;;;5146778;27;19923;-77
2022/07/29 07:32:48;;;;;;;;;;;19.70;99.90;;;;;;5129951;27;20293;-77
2022/07/29 07:35:13;;;;;;;;;;;19.90;99.90;;;;;;5158256;27;19971;-77
2022/07/29 07:37:40;;;;;;;;;;;20.00;99.90;;;;;;5155442;27;20370;-77
2022/07/29 07:40:06;;;;;;;;;;;20.20;99.90;;;;;;5157901;27;19930;-77
2022/07/29 07:42:32;;;;;;;;;;;20.30;99.90;;;;;;5152427;27;19958;-77
2022/07/29 07:44:58;;;;;;;;;;;20.30;99.90;;;;;;5150192;27;20356;-78
2022/07/29 07:47:24;;;;;;;;;;;20.30;99.90;;;;;;5147227;27;19974;-77
2022/07/29 07:49:50;;;;;;;;;;;20.30;99.90;;;;;;5125879;27;19958;-77
2022/07/29 07:52:16;;;;;;;;;;;20.30;99.90;;;;;;5137600;27;19923;-77
2022/07/29 07:54:43;;;;;;;;;;;20.40;99.90;;;;;;5148709;27;20378;-77
2022/07/29 07:57:08;;;;;;;;;;;20.50;99.90;;;;;;5132930;27;19966;-77
2022/07/29 07:59:34;;;;;;;;;;;20.50;99.90;;;;;;5139214;27;19963;-80
2022/07/29 08:02:00;;;;;;;;;;;20.60;99.90;;;;;;5124376;27;19930;-80
2022/07/29 08:04:26;;;;;;;;;;;20.60;99.90;;;;;;5119285;27;19927;-78
2022/07/29 08:06:53;;;;;;;;;;;20.70;99.90;;;;;;5131598;27;20385;-80
2022/07/29 08:09:23;;;;;;;;;;;20.70;99.90;;;;;;5123789;27;19934;-78
2022/07/29 08:11:48;;;;;;;;;;;20.80;99.90;;;;;;5141742;27;19970;-79
2022/07/29 08:14:14;;;;;;;;;;;20.80;99.90;;;;;;5157299;27;20368;-80
2022/07/29 08:16:40;;;;;;;;;;;20.70;99.90;;;;;;5118434;27;19923;-77
2022/07/29 08:19:06;;;;;;;;;;;20.80;99.90;;;;;;5123900;27;20223;-80
2022/07/29 08:21:32;;;;;;;;;;;20.80;99.90;;;;;;5136101;27;19919;-78
2022/07/29 08:26:44;;;;;;;;;;;20.70;99.90;;;;;;5156267;27;19923;-77
2022/07/29 08:29:09;;;;;;;;;;;20.60;99.90;;;;;;5154870;27;20267;-78
2022/07/29 08:31:39;;;;;;;;;;;20.50;99.90;;;;;;5136802;27;20368;-79
2022/07/29 08:34:05;;;;;;;;;;;20.50;99.90;;;;;;5124204;27;19938;-77
2022/07/29 08:36:30;;;;;;;;;;;20.50;99.90;;;;;;5143389;27;19931;-78
2022/07/29 08:38:56;;;;;;;;;;;20.40;99.90;;;;;;5149916;27;19929;-79
2022/07/29 08:41:22;;;;;;;;;;;20.40;99.90;;;;;;5144883;27;19975;-77
2022/07/29 08:43:48;;;;;;;;;;;20.40;99.90;;;;;;5135809;27;19927;-79
2022/07/29 08:46:14;;;;;;;;;;;20.40;99.90;;;;;;5126863;27;19931;-77
2022/07/29 08:48:40;;;;;;;;;;;20.50;99.90;;;;;;5136851;27;19927;-77
2022/07/29 08:51:07;;;;;;;;;;;20.50;99.90;;;;;;5146123;27;19978;-78
2022/07/29 08:53:32;;;;;;;;;;;20.60;99.90;;;;;;5133010;27;20003;-81
2022/07/29 08:55:58;;;;;;;;;;;20.80;99.90;;;;;;5136307;27;19962;-80
2022/07/29 08:58:24;;;;;;;;;;;20.90;99.90;;;;;;5150685;27;19927;-78
2022/07/29 09:00:51;;;;;;;;;;;21.10;99.90;;;;;;5146504;27;20251;-77
2022/07/29 09:03:19;;;;;;;;;;;21.20;99.90;;;;;;5150957;27;19930;-79
2022/07/29 09:05:45;;;;;;;;;;;21.40;99.90;;;;;;5147437;27;19932;-77
2022/07/29 09:08:11;;;;;;;;;;;21.50;99.90;;;;;;5142305;27;19927;-76
2022/07/29 09:10:37;;;;;;;;;;;21.70;99.90;;;;;;5149875;27;19927;-77
2022/07/29 09:13:02;;;;;;;;;;;21.70;99.90;;;;;;5129929;27;19929;-77
2022/07/29 09:15:28;;;;;;;;;;;21.80;99.90;;;;;;5151179;27;19922;-76
2022/07/29 09:17:55;;;;;;;;;;;21.90;99.90;;;;;;5140520;27;19931;-78
2022/07/29 09:20:24;;;;;;;;;;;21.90;99.90;;;;;;5142305;27;19923;-77
2022/07/29 09:22:52;;;;;;;;;;;22.00;99.90;;;;;;5133795;27;19927;-77
2022/07/29 09:25:34;;;;;;;;;;;22.00;99.90;;;;;;5130525;27;19927;-78
2022/07/29 09:28:13;;;;;;;;;;;22.00;99.90;;;;;;5135925;27;19946;-79
2022/07/29 09:30:50;;;;;;;;;;;22.20;99.90;;;;;;5144429;27;19923;-78
2022/07/29 09:33:15;;;;;;;;;;;22.30;99.90;;;;;;5154074;27;20010;-77
2022/07/29 09:35:41;;;;;;;;;;;22.20;99.90;;;;;;5107509;27;20134;-77
2022/07/29 09:38:13;;;;;;;;;;;22.20;99.90;;;;;;5136660;27;19926;-79
2022/07/29 09:40:39;;;;;;;;;;;22.10;99.90;;;;;;5142243;27;19927;-79
2022/07/29 09:43:11;;;;;;;;;;;22.20;99.90;;;;;;5156645;27;19980;-86
2022/07/29 09:45:37;;;;;;;;;;;22.20;99.90;;;;;;5133048;27;19926;-79
2022/07/29 09:48:13;;;;;;;;;;;22.20;99.90;;;;;;5137099;27;19926;-79
2022/07/29 09:50:40;;;;;;;;;;;22.20;99.90;;;;;;5111471;27;20403;-78
2022/07/29 09:53:05;;;;;;;;;;;22.20;99.90;;;;;;5145201;27;20058;-78
2022/07/29 09:55:31;;;;;;;;;;;22.20;99.90;;;;;;5119125;27;19988;-78
2022/07/29 09:58:16;;;;;;;;;;;22.20;99.90;;;;;;5150588;27;19947;-78
2022/07/29 10:00:42;;;;;;;;;;;22.10;99.90;;;;;;5122488;27;19927;-77
2022/07/29 10:03:07;;;;;;;;;;;22.10;99.90;;;;;;5124372;27;20196;-77
2022/07/29 10:05:33;;;;;;;;;;;22.00;99.90;;;;;;5136402;27;19927;-80
2022/07/29 10:07:59;;;;;;;;;;;21.90;99.90;;;;;;5147910;27;19934;-78
2022/07/29 10:10:28;;;;;;;;;;;21.90;99.90;;;;;;5154133;27;19930;-79
2022/07/29 10:13:07;;;;;;;;;;;21.80;99.90;;;;;;5120673;27;19979;-81
2022/07/29 10:15:36;;;;;;;;;;;21.80;99.90;;;;;;5140835;27;20331;-77
2022/07/29 10:18:02;;;;;;;;;;;21.80;99.90;;;;;;5143215;27;19926;-77
2022/07/29 10:20:28;;;;;;;;;;;21.70;99.90;;;;;;5163212;27;20275;-77
2022/07/29 10:22:54;;;;;;;;;;;21.70;99.90;;;;;;5145432;27;19938;-77
2022/07/29 10:25:20;;;;;;;;;;;21.70;99.90;;;;;;5169496;27;19923;-77
2022/07/29 10:27:46;;;;;;;;;;;21.60;99.90;;;;;;5138658;27;19923;-80
2022/07/29 10:30:12;;;;;;;;;;;21.60;99.90;;;;;;5140411;27;20258;-77
2022/07/29 10:32:57;;;;;;;;;;;21.50;99.90;;;;;;5134663;27;20003;-77
2022/07/29 10:35:25;;;;;;;;;;;21.50;99.90;;;;;;5154746;27;19922;-77
2022/07/29 10:38:10;;;;;;;;;;;21.40;99.90;;;;;;5120416;27;19927;-77
2022/07/29 10:43:35;;;;;;;;;;;21.30;99.90;;;;;;5145168;27;20366;-77
2022/07/29 10:46:02;;;;;;;;;;;21.20;99.90;;;;;;5135077;27;20014;-77
2022/07/29 10:48:28;;;;;;;;;;;21.20;99.90;;;;;;5130915;27;19926;-77
2022/07/29 10:50:59;;;;;;;;;;;21.10;99.90;;;;;;5158216;27;20363;-77
2022/07/29 10:53:45;;;;;;;;;;;21.00;99.90;;;;;;5166237;27;20021;-77
2022/07/29 10:56:27;;;;;;;;;;;20.90;99.90;;;;;;5139574;27;20007;-76
2022/07/29 10:59:11;;;;;;;;;;;20.90;99.90;;;;;;5122280;27;20374;-76
2022/07/29 11:01:36;;;;;;;;;;;20.80;99.90;;;;;;5134790;27;19958;-77
2022/07/29 11:04:04;;;;;;;;;;;20.70;99.90;;;;;;5146478;27;19966;-77
2022/07/29 11:06:49;;;;;;;;;;;20.80;99.90;;;;;;5143303;27;19938;-77
2022/07/29 11:09:19;;;;;;;;;;;20.70;99.90;;;;;;5134790;27;19931;-77
2022/07/29 11:11:45;;;;;;;;;;;20.70;99.90;;;;;;5137155;27;20470;-76
2022/07/29 11:14:11;;;;;;;;;;;20.70;99.90;;;;;;5131866;27;19991;-77
2022/07/29 11:16:55;;;;;;;;;;;20.70;99.90;;;;;;5126034;27;20036;-77
2022/07/29 11:19:21;;;;;;;;;;;20.70;99.90;;;;;;5152819;27;20168;-77
2022/07/29 11:21:47;;;;;;;;;;;20.70;99.90;;;;;;5143760;27;20332;-78
2022/07/29 11:24:13;;;;;;;;;;;20.80;99.90;;;;;;5127929;27;19927;-79
2022/07/29 11:26:39;;;;;;;;;;;21.00;99.90;;;;;;5146277;27;19985;-77
2022/07/29 11:29:22;;;;;;;;;;;21.00;99.90;;;;;;5158921;27;19934;-78
2022/07/29 11:31:51;;;;;;;;;;;21.20;99.90;;;;;;5134968;27;19979;-78
2022/07/29 11:34:17;;;;;;;;;;;21.30;99.90;;;;;;5137020;27;20456;-76
2022/07/29 11:37:18;;;;;;;;;;;21.40;99.90;;;;;;5140531;27;20305;-77
2022/07/29 11:39:46;;;;;;;;;;;21.50;99.90;;;;;;5034786;28;19939;-79
2022/07/29 11:42:21;;;;;;;;;;;21.60;99.90;;;;;;5118854;27;19964;-79
2022/07/29 11:44:53;;;;;;;;;;;21.70;99.90;;;;;;5126183;27;20002;-78
2022/07/29 11:47:19;;;;;;;;;;;21.60;99.90;;;;;;5116081;27;19986;-80
2022/07/29 11:49:45;;;;;;;;;;;21.60;99.90;;;;;;5149615;27;19926;-78
2022/07/29 11:52:11;;;;;;;;;;;21.60;99.90;;;;;;5137436;27;19956;-78
2022/07/29 11:54:39;;;;;;;;;;;21.60;99.90;;;;;;5134693;27;20010;-77
2022/07/29 11:57:06;;;;;;;;;;;21.50;99.90;;;;;;5146963;27;20405;-78
2022/07/29 11:59:38;;;;;;;;;;;21.40;99.90;;;;;;5141503;27;19930;-78
2022/07/29 12:02:03;;;;;;;;;;;21.40;99.90;;;;;;5140162;27;19946;-79
2022/07/29 12:04:29;;;;;;;;;;;21.30;99.90;;;;;;5138951;27;19927;-81
2022/07/29 12:06:56;;;;;;;;;;;21.20;99.90;;;;;;5144757;27;20657;-77
2022/07/29 12:09:23;;;;;;;;;;;21.10;99.90;;;;;;5136617;27;19927;-81
2022/07/29 12:11:55;;;;;;;;;;;21.10;99.90;;;;;;5142869;27;19935;-77
2022/07/29 12:14:45;;;;;;;;;;;21.00;99.90;;;;;;5172035;27;19930;-80
2022/07/29 12:17:25;;;;;;;;;;;21.00;99.90;;;;;;5122186;27;19927;-79
2022/07/29 12:19:51;;;;;;;;;;;21.00;99.90;;;;;;5130966;27;19923;-86
2022/07/29 12:22:24;;;;;;;;;;;21.00;99.90;;;;;;5132103;27;19923;-85
2022/07/29 12:24:50;;;;;;;;;;;21.10;99.90;;;;;;5135044;27;19945;-78
2022/07/29 12:27:17;;;;;;;;;;;21.00;99.90;;;;;;5144852;27;20017;-78
2022/07/29 12:29:42;;;;;;;;;;;21.00;99.90;;;;;;5146171;27;19931;-79
2022/07/29 12:32:08;;;;;;;;;;;21.00;99.90;;;;;;5152050;27;20379;-82
2022/07/29 12:34:34;;;;;;;;;;;21.10;99.90;;;;;;5137176;27;19938;-82
2022/07/29 12:37:00;;;;;;;;;;;21.10;99.90;;;;;;5121247;27;20394;-82
2022/07/29 12:39:27;;;;;;;;;;;21.20;99.90;;;;;;5145890;27;19927;-80
2022/07/29 12:41:53;;;;;;;;;;;21.20;99.90;;;;;;5141879;27;19933;-82
2022/07/29 12:44:19;;;;;;;;;;;21.20;99.90;;;;;;5147743;27;19923;-81
2022/07/29 12:46:46;;;;;;;;;;;21.20;99.90;;;;;;5131543;27;20013;-81
2022/07/29 12:49:20;;;;;;;;;;;21.30;99.90;;;;;;5142122;27;20433;-82
2022/07/29 12:51:46;;;;;;;;;;;21.40;99.90;;;;;;5116759;27;19927;-82
2022/07/29 12:54:13;;;;;;;;;;;21.50;99.90;;;;;;5122485;27;19927;-82
2022/07/29 12:56:39;;;;;;;;;;;21.60;99.90;;;;;;5131126;27;19919;-80
2022/07/29 12:59:12;;;;;;;;;;;21.70;99.90;;;;;;5148858;27;19978;-81
2022/07/29 13:01:38;;;;;;;;;;;21.80;99.90;;;;;;5140746;27;19928;-83
2022/07/29 13:04:04;;;;;;;;;;;21.90;99.90;;;;;;5134056;27;19928;-81
2022/07/29 13:06:50;;;;;;;;;;;22.00;99.90;;;;;;5122166;27;19923;-74
2022/07/29 13:09:19;;;;;;;;;;;22.20;99.90;;;;;;5142921;27;19923;-76
2022/07/29 13:11:46;;;;;;;;;;;22.30;99.90;;;;;;5134655;27;20342;-74
2022/07/29 13:14:13;;;;;;;;;;;22.40;99.90;;;;;;5131946;27;20401;-79
2022/07/29 13:16:59;;;;;;;;;;;22.40;99.90;;;;;;5146790;27;19930;-79
2022/07/29 13:19:32;;;;;;;;;;;22.50;99.90;;;;;;5133011;27;19929;-79
2022/07/29 13:21:58;;;;;;;;;;;22.60;99.90;;;;;;5155596;27;19971;-79
2022/07/29 13:24:24;;;;;;;;;;;22.60;99.90;;;;;;5145342;27;19988;-79
2022/07/29 13:26:51;;;;;;;;;;;22.80;99.90;;;;;;5127062;27;19934;-81
2022/07/29 13:29:17;;;;;;;;;;;23.00;99.90;;;;;;5114473;27;19974;-79
2022/07/29 13:31:42;;;;;;;;;;;23.30;99.90;;;;;;5139790;27;19958;-79
2022/07/29 13:34:08;;;;;;;;;;;23.50;99.90;;;;;;5137314;27;19927;-85
2022/07/29 13:36:33;;;;;;;;;;;23.80;99.90;;;;;;5135853;27;19954;-79
2022/07/29 13:39:00;;;;;;;;;;;24.20;99.90;;;;;;5146091;27;19923;-84
2022/07/29 13:41:26;;;;;;;;;;;24.70;99.90;;;;;;5123073;27;20264;-80
2022/07/29 13:43:52;;;;;;;;;;;25.20;99.90;;;;;;5146170;27;19938;-81
2022/07/29 13:46:18;;;;;;;;;;;25.60;99.90;;;;;;5145589;27;19923;-81
2022/07/29 13:48:43;;;;;;;;;;;26.00;99.90;;;;;;5124808;27;19933;-80
2022/07/29 13:51:09;;;;;;;;;;;26.80;99.90;;;;;;5133542;27;20368;-80
2022/07/29 13:53:34;;;;;;;;;;;27.30;99.90;;;;;;5136664;27;19991;-81
2022/07/29 13:56:00;;;;;;;;;;;27.90;99.90;;;;;;5133475;27;20275;-81
2022/07/29 13:58:26;;;;;;;;;;;28.20;99.90;;;;;;5138109;27;20041;-81
2022/07/29 14:00:51;;;;;;;;;;;28.40;99.90;;;;;;5136759;27;19974;-81
2022/07/29 14:03:17;;;;;;;;;;;28.90;99.90;;;;;;5127689;27;19962;-80
2022/07/29 14:05:42;;;;;;;;;;;29.50;99.90;;;;;;5132151;27;19927;-80
2022/07/29 14:08:08;;;;;;;;;;;29.70;99.80;;;;;;5123605;27;19927;-82
2022/07/29 14:10:33;;;;;;;;;;;29.70;99.50;;;;;;5142613;27;19927;-83
2022/07/29 14:12:59;;;;;;;;;;;30.00;99.20;;;;;;5120389;27;19951;-83
2022/07/29 14:15:25;;;;;;;;;;;30.30;99.90;;;;;;5133669;27;19927;-81
2022/07/29 14:17:51;;;;;;;;;;;29.80;98.80;;;;;;5123727;27;20472;-83
2022/07/29 14:20:16;;;;;;;;;;;29.70;98.70;;;;;;5130148;27;19931;-81
2022/07/29 14:22:42;;;;;;;;;;;29.70;99.30;;;;;;5133295;27;20239;-84
2022/07/29 14:25:08;;;;;;;;;;;29.70;99.20;;;;;;5141811;27;20346;-82